Terminal Aerodrome Forecast
Issued by NWS

Home | Current Version | Previous Version | Text Only | Print | Product List | Glossary On
Versions: 1 2 3 4 5 6 7 8 9 10 11 12 13 14 15
000
FTUS45 KTFX 212344
TAFBZN
TAF
KBZN 212344Z 2200/2306 VRB05KT P6SM -SHRA SCT035 OVC050
     FM220800 35007KT 2SM -RASN BR SCT005 OVC015
     FM221500 31010G19KT P6SM -RA SCT012 OVC025=

USA.gov is the U.S. government's official web portal to all federal, state and local government web resources and services.